EmpreSS Horn Blower — WAZ9629 — position and weather

sailwx.info

Track history (hours):
 
Tides and Currents Weather Stations Pressure Air Temp Water Temp Dewpoint Dewpoint Depression Visibility Wind Speed Wind Dir Waves Ship Positions

EmpreSS Horn Blower

Owner: HORNBLOWER DINING YACHTS, SAN FRANCISCO, CA. More information available from US FCC via Universal Licensing System and Coast Guard Vessel Documentation Center.

Last reported at 2017-Oct-19 00:58 UTC. Time now 2017-Oct-20 03:26 UTC.
Position N 37°52' W 122°19'.

Length 26 m; draft 2 m.

Type: Passenger vessel. MMSI: 366988170.

Date/timePositionNaut miles runAvg speedWind from/ knotsBaromVisibWave heightAir tempDewpointWater temp
2017-Oct-19 00:58N 37°52' W 122°19'2 4.2
2017-Oct-19 00:30N 37°51' W 122°21'3 6.5
2017-Oct-19 00:00N 37°49' W 122°24'1 1.4
2017-Oct-18 23:31N 37°48' W 122°23'2 4.1
2017-Oct-18 23:00N 37°46' W 122°23'2 4.2
2017-Oct-18 22:30N 37°48' W 122°22'2 4.3
2017-Oct-18 22:00N 37°50' W 122°22'2 4.8
2017-Oct-18 21:30N 37°50' W 122°25'3 5.0
2017-Oct-18 21:00N 37°48' W 122°24'0 0.8
2017-Oct-18 20:30N 37°48' W 122°24'3 5.8
2017-Oct-18 20:01N 37°51' W 122°22'3 5.3
2017-Oct-18 19:30N 37°52' W 122°19'0 0.0
2017-Oct-18 19:00N 37°52' W 122°19'  
2017-Oct-15 03:58N 37°52' W 122°19'2 4.3
2017-Oct-15 03:30N 37°51' W 122°21'4 7.6
2017-Oct-15 03:01N 37°50' W 122°26'2 3.1
2017-Oct-15 02:30N 37°50' W 122°27'2 4.4
2017-Oct-15 02:00N 37°50' W 122°25'3 6.3
2017-Oct-15 01:30N 37°51' W 122°21'2 3.9
2017-Oct-15 01:01N 37°52' W 122°19'0 0.0
2017-Oct-15 00:30N 37°52' W 122°19'0 0.0
2017-Oct-15 00:00N 37°52' W 122°19'0 0.0
2017-Oct-14 22:22N 37°52' W 122°19'0 0.0
2017-Oct-14 22:00N 37°52' W 122°19'1 1.2
2017-Oct-14 21:31N 37°52' W 122°20'3 5.8
2017-Oct-14 21:00N 37°51' W 122°23'4 7.8
2017-Oct-14 20:30N 37°50' W 122°28'2 4.4
2017-Oct-14 20:00N 37°52' W 122°27'4 8.0
2017-Oct-14 19:30N 37°52' W 122°22'3 5.1
2017-Oct-14 19:00N 37°52' W 122°19'0 0.0
2017-Oct-14 18:30N 37°52' W 122°19'0 0.0
2017-Oct-14 18:00N 37°52' W 122°19'0 0.0
2017-Oct-14 17:30N 37°52' W 122°19'0 0.0
2017-Oct-14 17:00N 37°52' W 122°19'0 0.0
2017-Oct-13 04:14N 37°52' W 122°19'0 1.0
2017-Oct-13 04:00N 37°52' W 122°19'4 8.2
2017-Oct-13 03:30N 37°49' W 122°23'2 3.2
2017-Oct-13 03:00N 37°48' W 122°24'1 1.1
2017-Oct-13 02:30N 37°48' W 122°23'3 6.1
2017-Oct-13 02:00N 37°50' W 122°26'1 2.4
2017-Oct-13 01:30N 37°49' W 122°26'2 4.8
2017-Oct-13 01:00N 37°48' W 122°24'0 0.0
2017-Oct-13 00:30N 37°48' W 122°24'0 0.4
2017-Oct-13 00:00N 37°48' W 122°24'3 5.5
2017-Oct-12 23:30N 37°51' W 122°22'3 5.4
2017-Oct-12 22:58N 37°52' W 122°19'0 0.0
2017-Oct-10 23:57N 37°52' W 122°19'0 0.0
2017-Oct-10 23:31N 37°52' W 122°19'0 0.0
2017-Oct-10 23:01N 37°52' W 122°19'  
Track history (hours):
 
Tides and Currents Weather Stations Pressure Air Temp Water Temp Dewpoint Dewpoint Depression Visibility Wind Speed Wind Dir Waves Ship Positions

EmpreSS Horn Blower

Owner: HORNBLOWER DINING YACHTS, SAN FRANCISCO, CA. More information available from US FCC via Universal Licensing System and Coast Guard Vessel Documentation Center.

Last reported at 2017-Oct-19 00:58 UTC. Time now 2017-Oct-20 03:26 UTC.
Position N 37°52' W 122°19'.

Length 26 m; draft 2 m.

Type: Passenger vessel. MMSI: 366988170.

Date/timePositionNaut miles runAvg speedWind from/ knotsBaromVisibWave heightAir tempDewpointWater temp
2017-Oct-19 00:58N 37°52' W 122°19'2 4.2
2017-Oct-19 00:30N 37°51' W 122°21'3 6.5
2017-Oct-19 00:00N 37°49' W 122°24'1 1.4
2017-Oct-18 23:31N 37°48' W 122°23'2 4.1
2017-Oct-18 23:00N 37°46' W 122°23'2 4.2
2017-Oct-18 22:30N 37°48' W 122°22'2 4.3
2017-Oct-18 22:00N 37°50' W 122°22'2 4.8
2017-Oct-18 21:30N 37°50' W 122°25'3 5.0
2017-Oct-18 21:00N 37°48' W 122°24'0 0.8
2017-Oct-18 20:30N 37°48' W 122°24'3 5.8
2017-Oct-18 20:01N 37°51' W 122°22'3 5.3
2017-Oct-18 19:30N 37°52' W 122°19'0 0.0
2017-Oct-18 19:00N 37°52' W 122°19'  
2017-Oct-15 03:58N 37°52' W 122°19'2 4.3
2017-Oct-15 03:30N 37°51' W 122°21'4 7.6
2017-Oct-15 03:01N 37°50' W 122°26'2 3.1
2017-Oct-15 02:30N 37°50' W 122°27'2 4.4
2017-Oct-15 02:00N 37°50' W 122°25'3 6.3
2017-Oct-15 01:30N 37°51' W 122°21'2 3.9
2017-Oct-15 01:01N 37°52' W 122°19'0 0.0
2017-Oct-15 00:30N 37°52' W 122°19'0 0.0
2017-Oct-15 00:00N 37°52' W 122°19'0 0.0
2017-Oct-14 22:22N 37°52' W 122°19'0 0.0
2017-Oct-14 22:00N 37°52' W 122°19'1 1.2
2017-Oct-14 21:31N 37°52' W 122°20'3 5.8
2017-Oct-14 21:00N 37°51' W 122°23'4 7.8
2017-Oct-14 20:30N 37°50' W 122°28'2 4.4
2017-Oct-14 20:00N 37°52' W 122°27'4 8.0
2017-Oct-14 19:30N 37°52' W 122°22'3 5.1
2017-Oct-14 19:00N 37°52' W 122°19'0 0.0
2017-Oct-14 18:30N 37°52' W 122°19'0 0.0
2017-Oct-14 18:00N 37°52' W 122°19'0 0.0
2017-Oct-14 17:30N 37°52' W 122°19'0 0.0
2017-Oct-14 17:00N 37°52' W 122°19'0 0.0
2017-Oct-13 04:14N 37°52' W 122°19'0 1.0
2017-Oct-13 04:00N 37°52' W 122°19'4 8.2
2017-Oct-13 03:30N 37°49' W 122°23'2 3.2
2017-Oct-13 03:00N 37°48' W 122°24'1 1.1
2017-Oct-13 02:30N 37°48' W 122°23'3 6.1
2017-Oct-13 02:00N 37°50' W 122°26'1 2.4
2017-Oct-13 01:30N 37°49' W 122°26'2 4.8
2017-Oct-13 01:00N 37°48' W 122°24'0 0.0
2017-Oct-13 00:30N 37°48' W 122°24'0 0.4
2017-Oct-13 00:00N 37°48' W 122°24'3 5.5
2017-Oct-12 23:30N 37°51' W 122°22'3 5.4
2017-Oct-12 22:58N 37°52' W 122°19'0 0.0
2017-Oct-10 23:57N 37°52' W 122°19'0 0.0
2017-Oct-10 23:31N 37°52' W 122°19'0 0.0
2017-Oct-10 23:01N 37°52' W 122°19'  

Dump ship's entire track history